sensor_id;sensor_type;location;lat;lon;timestamp;pressure;altitude;pressure_sealevel;temperature;humidity
38225;BME280;24025;48.138;11.428;2023-12-14T00:01:23;94351.56;;;6.11;96.70
38225;BME280;24025;48.138;11.428;2023-12-14T00:03:55;94356.00;;;6.03;96.55
38225;BME280;24025;48.138;11.428;2023-12-14T00:06:26;94354.13;;;6.04;96.63
38225;BME280;24025;48.138;11.428;2023-12-14T00:08:58;94355.56;;;5.97;96.59
38225;BME280;24025;48.138;11.428;2023-12-14T00:11:30;94363.28;;;6.10;96.20
38225;BME280;24025;48.138;11.428;2023-12-14T00:14:01;94360.66;;;6.13;96.09
38225;BME280;24025;48.138;11.428;2023-12-14T00:16:33;94363.63;;;6.08;96.26
38225;BME280;24025;48.138;11.428;2023-12-14T00:19:05;94367.44;;;6.11;96.31
38225;BME280;24025;48.138;11.428;2023-12-14T00:21:36;94371.44;;;5.97;96.53
38225;BME280;24025;48.138;11.428;2023-12-14T00:24:08;94371.56;;;6.08;96.63
38225;BME280;24025;48.138;11.428;2023-12-14T00:26:39;94372.59;;;6.00;97.01
38225;BME280;24025;48.138;11.428;2023-12-14T00:29:11;94372.09;;;5.91;97.73
38225;BME280;24025;48.138;11.428;2023-12-14T00:31:43;94382.25;;;5.89;98.08
38225;BME280;24025;48.138;11.428;2023-12-14T00:34:14;94384.66;;;5.97;97.82
38225;BME280;24025;48.138;11.428;2023-12-14T00:36:46;94393.38;;;5.98;98.09
38225;BME280;24025;48.138;11.428;2023-12-14T00:39:18;94395.63;;;5.96;98.30
38225;BME280;24025;48.138;11.428;2023-12-14T00:41:49;94395.84;;;5.87;98.82
38225;BME280;24025;48.138;11.428;2023-12-14T00:44:21;94399.44;;;5.72;99.47
38225;BME280;24025;48.138;11.428;2023-12-14T00:46:52;94401.69;;;5.70;100.00
38225;BME280;24025;48.138;11.428;2023-12-14T00:49:24;94404.72;;;5.72;100.00
38225;BME280;24025;48.138;11.428;2023-12-14T00:51:57;94412.28;;;5.74;100.00
38225;BME280;24025;48.138;11.428;2023-12-14T00:54:30;94416.00;;;5.65;100.00
38225;BME280;24025;48.138;11.428;2023-12-14T00:57:01;94415.66;;;5.71;100.00
38225;BME280;24025;48.138;11.428;2023-12-14T00:59:33;94423.19;;;5.68;100.00
38225;BME280;24025;48.138;11.428;2023-12-14T01:02:04;94425.13;;;5.72;99.48
38225;BME280;24025;48.138;11.428;2023-12-14T01:04:36;94425.47;;;5.70;98.48
38225;BME280;24025;48.138;11.428;2023-12-14T01:07:08;94441.38;;;5.74;98.21
38225;BME280;24025;48.138;11.428;2023-12-14T01:09:39;94444.22;;;5.58;96.83
38225;BME280;24025;48.138;11.428;2023-12-14T01:12:11;94449.25;;;5.66;97.35
38225;BME280;24025;48.138;11.428;2023-12-14T01:14:43;94454.06;;;5.61;96.63
38225;BME280;24025;48.138;11.428;2023-12-14T01:17:14;94461.25;;;5.60;96.80
38225;BME280;24025;48.138;11.428;2023-12-14T01:19:46;94465.63;;;5.49;96.76
38225;BME280;24025;48.138;11.428;2023-12-14T01:22:17;94465.00;;;5.59;97.67
38225;BME280;24025;48.138;11.428;2023-12-14T01:24:49;94461.34;;;5.67;97.59
38225;BME280;24025;48.138;11.428;2023-12-14T01:27:21;94471.94;;;5.67;97.94
38225;BME280;24025;48.138;11.428;2023-12-14T01:29:53;94481.28;;;5.61;97.91
38225;BME280;24025;48.138;11.428;2023-12-14T01:32:24;94472.53;;;5.57;98.40
38225;BME280;24025;48.138;11.428;2023-12-14T01:34:56;94478.34;;;5.66;98.55
38225;BME280;24025;48.138;11.428;2023-12-14T01:37:27;94484.44;;;5.71;98.43
38225;BME280;24025;48.138;11.428;2023-12-14T01:39:59;94482.41;;;5.60;98.99
38225;BME280;24025;48.138;11.428;2023-12-14T01:42:31;94492.41;;;5.74;99.16
38225;BME280;24025;48.138;11.428;2023-12-14T01:45:04;94490.88;;;5.73;99.16
38225;BME280;24025;48.138;11.428;2023-12-14T01:47:35;94491.38;;;5.56;100.00
38225;BME280;24025;48.138;11.428;2023-12-14T01:50:07;94488.69;;;5.52;100.00
38225;BME280;24025;48.138;11.428;2023-12-14T01:52:39;94500.63;;;5.43;100.00
38225;BME280;24025;48.138;11.428;2023-12-14T01:55:10;94505.56;;;5.44;100.00
38225;BME280;24025;48.138;11.428;2023-12-14T01:57:42;94512.94;;;5.31;100.00
38225;BME280;24025;48.138;11.428;2023-12-14T02:00:25;94509.91;;;5.33;100.00
38225;BME280;24025;48.138;11.428;2023-12-14T02:03:00;94507.84;;;5.46;100.00
38225;BME280;24025;48.138;11.428;2023-12-14T02:05:32;94516.25;;;5.51;100.00
38225;BME280;24025;48.138;11.428;2023-12-14T02:08:03;94525.59;;;5.45;100.00
38225;BME280;24025;48.138;11.428;2023-12-14T02:10:35;94530.06;;;5.41;100.00
38225;BME280;24025;48.138;11.428;2023-12-14T02:13:07;94526.19;;;5.35;100.00
38225;BME280;24025;48.138;11.428;2023-12-14T02:15:39;94538.22;;;5.32;100.00
38225;BME280;24025;48.138;11.428;2023-12-14T02:18:10;94536.75;;;5.35;100.00
38225;BME280;24025;48.138;11.428;2023-12-14T02:20:42;94540.63;;;5.18;100.00
38225;BME280;24025;48.138;11.428;2023-12-14T02:23:13;94541.47;;;5.22;100.00
38225;BME280;24025;48.138;11.428;2023-12-14T02:25:45;94544.16;;;5.26;100.00
38225;BME280;24025;48.138;11.428;2023-12-14T02:28:16;94541.97;;;5.08;100.00
38225;BME280;24025;48.138;11.428;2023-12-14T02:30:48;94547.31;;;5.12;100.00
38225;BME280;24025;48.138;11.428;2023-12-14T02:33:20;94549.19;;;5.11;100.00
38225;BME280;24025;48.138;11.428;2023-12-14T02:35:51;94557.59;;;5.17;100.00
38225;BME280;24025;48.138;11.428;2023-12-14T02:38:23;94559.75;;;5.11;100.00
38225;BME280;24025;48.138;11.428;2023-12-14T02:40:55;94563.50;;;5.10;100.00
38225;BME280;24025;48.138;11.428;2023-12-14T02:43:26;94562.53;;;5.19;100.00
38225;BME280;24025;48.138;11.428;2023-12-14T02:45:58;94568.00;;;5.29;100.00
38225;BME280;24025;48.138;11.428;2023-12-14T02:48:33;94576.28;;;5.28;100.00
38225;BME280;24025;48.138;11.428;2023-12-14T02:51:05;94574.94;;;5.15;100.00
38225;BME280;24025;48.138;11.428;2023-12-14T02:53:37;94573.41;;;5.14;100.00
38225;BME280;24025;48.138;11.428;2023-12-14T02:56:09;94574.25;;;4.98;100.00
38225;BME280;24025;48.138;11.428;2023-12-14T02:58:42;94582.38;;;5.09;100.00
38225;BME280;24025;48.138;11.428;2023-12-14T03:01:14;94590.09;;;4.98;100.00
38225;BME280;24025;48.138;11.428;2023-12-14T03:03:45;94586.34;;;4.99;100.00
38225;BME280;24025;48.138;11.428;2023-12-14T03:06:17;94593.16;;;5.00;100.00
38225;BME280;24025;48.138;11.428;2023-12-14T03:08:49;94591.28;;;5.01;100.00
38225;BME280;24025;48.138;11.428;2023-12-14T03:11:24;94609.28;;;4.95;100.00
38225;BME280;24025;48.138;11.428;2023-12-14T03:13:55;94607.13;;;5.01;100.00
38225;BME280;24025;48.138;11.428;2023-12-14T03:16:27;94603.16;;;5.10;100.00
38225;BME280;24025;48.138;11.428;2023-12-14T03:18:59;94609.00;;;5.00;100.00
38225;BME280;24025;48.138;11.428;2023-12-14T03:21:30;94614.03;;;4.86;100.00
38225;BME280;24025;48.138;11.428;2023-12-14T03:24:02;94613.81;;;4.95;100.00
38225;BME280;24025;48.138;11.428;2023-12-14T03:26:36;94625.25;;;5.02;100.00
38225;BME280;24025;48.138;11.428;2023-12-14T03:29:08;94627.78;;;5.15;100.00
38225;BME280;24025;48.138;11.428;2023-12-14T03:31:40;94632.84;;;5.23;100.00
38225;BME280;24025;48.138;11.428;2023-12-14T03:34:12;94644.78;;;5.17;100.00
38225;BME280;24025;48.138;11.428;2023-12-14T03:36:43;94646.06;;;5.23;100.00
38225;BME280;24025;48.138;11.428;2023-12-14T03:39:15;94647.22;;;5.26;100.00
38225;BME280;24025;48.138;11.428;2023-12-14T03:41:47;94641.34;;;5.13;100.00
38225;BME280;24025;48.138;11.428;2023-12-14T03:44:19;94648.19;;;5.18;100.00
38225;BME280;24025;48.138;11.428;2023-12-14T03:46:51;94644.19;;;5.04;100.00
38225;BME280;24025;48.138;11.428;2023-12-14T03:49:22;94658.72;;;5.14;100.00
38225;BME280;24025;48.138;11.428;2023-12-14T03:51:54;94658.84;;;5.21;100.00
38225;BME280;24025;48.138;11.428;2023-12-14T03:54:25;94667.75;;;5.32;100.00
38225;BME280;24025;48.138;11.428;2023-12-14T03:56:57;94663.66;;;5.16;100.00
38225;BME280;24025;48.138;11.428;2023-12-14T03:59:28;94672.19;;;5.09;100.00
38225;BME280;24025;48.138;11.428;2023-12-14T04:02:00;94670.66;;;5.08;100.00
38225;BME280;24025;48.138;11.428;2023-12-14T04:04:32;94682.56;;;5.18;100.00
38225;BME280;24025;48.138;11.428;2023-12-14T04:07:03;94683.88;;;5.08;100.00
38225;BME280;24025;48.138;11.428;2023-12-14T04:09:35;94679.84;;;5.14;100.00
38225;BME280;24025;48.138;11.428;2023-12-14T04:12:06;94683.47;;;5.06;100.00
38225;BME280;24025;48.138;11.428;2023-12-14T04:14:38;94686.72;;;5.19;100.00
38225;BME280;24025;48.138;11.428;2023-12-14T04:17:10;94694.19;;;5.13;100.00
38225;BME280;24025;48.138;11.428;2023-12-14T04:19:42;94697.19;;;5.31;100.00
38225;BME280;24025;48.138;11.428;2023-12-14T04:22:13;94703.53;;;5.30;100.00
38225;BME280;24025;48.138;11.428;2023-12-14T04:24:45;94700.13;;;5.29;100.00
38225;BME280;24025;48.138;11.428;2023-12-14T04:27:17;94715.38;;;5.36;100.00
38225;BME280;24025;48.138;11.428;2023-12-14T04:29:48;94720.59;;;5.32;100.00
38225;BME280;24025;48.138;11.428;2023-12-14T04:32:20;94724.34;;;5.12;100.00
38225;BME280;24025;48.138;11.428;2023-12-14T04:34:51;94724.84;;;5.18;100.00
38225;BME280;24025;48.138;11.428;2023-12-14T04:37:23;94735.63;;;5.28;100.00
38225;BME280;24025;48.138;11.428;2023-12-14T04:39:54;94736.78;;;5.11;100.00
38225;BME280;24025;48.138;11.428;2023-12-14T04:42:26;94745.56;;;5.16;100.00
38225;BME280;24025;48.138;11.428;2023-12-14T04:44:57;94739.44;;;5.11;100.00
38225;BME280;24025;48.138;11.428;2023-12-14T04:47:29;94742.22;;;5.19;100.00
38225;BME280;24025;48.138;11.428;2023-12-14T04:50:01;94761.06;;;5.17;100.00
38225;BME280;24025;48.138;11.428;2023-12-14T04:52:32;94754.00;;;5.21;100.00
38225;BME280;24025;48.138;11.428;2023-12-14T04:55:05;94753.56;;;5.19;100.00
38225;BME280;24025;48.138;11.428;2023-12-14T04:57:37;94756.69;;;5.25;100.00
38225;BME280;24025;48.138;11.428;2023-12-14T05:00:09;94761.00;;;5.14;100.00
38225;BME280;24025;48.138;11.428;2023-12-14T05:02:40;94763.22;;;5.11;100.00
38225;BME280;24025;48.138;11.428;2023-12-14T05:05:12;94774.09;;;4.91;100.00
38225;BME280;24025;48.138;11.428;2023-12-14T05:07:44;94772.88;;;5.04;100.00
38225;BME280;24025;48.138;11.428;2023-12-14T05:10:15;94776.41;;;5.11;100.00
38225;BME280;24025;48.138;11.428;2023-12-14T05:12:47;94789.81;;;5.03;100.00
38225;BME280;24025;48.138;11.428;2023-12-14T05:15:19;94788.06;;;4.91;100.00
38225;BME280;24025;48.138;11.428;2023-12-14T05:17:51;94791.94;;;4.78;100.00
38225;BME280;24025;48.138;11.428;2023-12-14T05:20:23;94798.22;;;4.89;100.00
38225;BME280;24025;48.138;11.428;2023-12-14T05:22:54;94799.81;;;4.94;100.00
38225;BME280;24025;48.138;11.428;2023-12-14T05:25:26;94809.97;;;4.92;100.00
38225;BME280;24025;48.138;11.428;2023-12-14T05:27:58;94813.72;;;4.91;100.00
38225;BME280;24025;48.138;11.428;2023-12-14T05:30:30;94808.34;;;4.87;100.00
38225;BME280;24025;48.138;11.428;2023-12-14T05:33:02;94816.34;;;4.91;100.00
38225;BME280;24025;48.138;11.428;2023-12-14T05:35:33;94821.22;;;4.89;100.00
38225;BME280;24025;48.138;11.428;2023-12-14T05:38:05;94823.50;;;5.06;100.00
38225;BME280;24025;48.138;11.428;2023-12-14T05:40:37;94823.16;;;4.92;100.00
38225;BME280;24025;48.138;11.428;2023-12-14T05:43:08;94830.59;;;4.86;100.00
38225;BME280;24025;48.138;11.428;2023-12-14T05:45:40;94830.66;;;4.90;100.00
38225;BME280;24025;48.138;11.428;2023-12-14T05:48:12;94837.91;;;4.93;100.00
38225;BME280;24025;48.138;11.428;2023-12-14T05:50:44;94843.16;;;5.08;100.00
38225;BME280;24025;48.138;11.428;2023-12-14T05:53:15;94850.69;;;5.06;100.00
38225;BME280;24025;48.138;11.428;2023-12-14T05:55:47;94854.84;;;5.07;100.00
38225;BME280;24025;48.138;11.428;2023-12-14T05:58:19;94858.03;;;4.97;100.00
38225;BME280;24025;48.138;11.428;2023-12-14T06:00:50;94863.13;;;5.06;100.00
38225;BME280;24025;48.138;11.428;2023-12-14T06:03:22;94867.19;;;5.03;100.00
38225;BME280;24025;48.138;11.428;2023-12-14T06:05:53;94876.94;;;5.15;100.00
38225;BME280;24025;48.138;11.428;2023-12-14T06:08:25;94879.28;;;5.20;100.00
38225;BME280;24025;48.138;11.428;2023-12-14T06:10:57;94883.50;;;5.05;100.00
38225;BME280;24025;48.138;11.428;2023-12-14T06:13:29;94888.84;;;5.09;100.00
38225;BME280;24025;48.138;11.428;2023-12-14T06:16:00;94895.44;;;5.15;100.00
38225;BME280;24025;48.138;11.428;2023-12-14T06:18:32;94892.44;;;5.17;100.00
38225;BME280;24025;48.138;11.428;2023-12-14T06:21:04;94900.13;;;5.22;100.00
38225;BME280;24025;48.138;11.428;2023-12-14T06:23:36;94902.41;;;5.23;100.00
38225;BME280;24025;48.138;11.428;2023-12-14T06:26:07;94911.94;;;5.28;100.00
38225;BME280;24025;48.138;11.428;2023-12-14T06:28:39;94909.41;;;5.31;100.00
38225;BME280;24025;48.138;11.428;2023-12-14T06:31:15;94911.69;;;5.33;100.00
38225;BME280;24025;48.138;11.428;2023-12-14T06:33:47;94918.00;;;5.28;100.00
38225;BME280;24025;48.138;11.428;2023-12-14T06:36:20;94911.41;;;5.38;100.00
38225;BME280;24025;48.138;11.428;2023-12-14T06:38:51;94927.38;;;5.42;100.00
38225;BME280;24025;48.138;11.428;2023-12-14T06:41:23;94934.69;;;5.48;100.00
38225;BME280;24025;48.138;11.428;2023-12-14T06:43:55;94938.78;;;5.46;100.00
38225;BME280;24025;48.138;11.428;2023-12-14T06:46:27;94937.25;;;5.45;100.00
38225;BME280;24025;48.138;11.428;2023-12-14T06:48:58;94939.88;;;5.45;100.00
38225;BME280;24025;48.138;11.428;2023-12-14T06:51:30;94948.00;;;5.52;100.00
38225;BME280;24025;48.138;11.428;2023-12-14T06:54:02;94951.41;;;5.52;100.00
38225;BME280;24025;48.138;11.428;2023-12-14T06:56:36;94955.16;;;5.51;100.00
38225;BME280;24025;48.138;11.428;2023-12-14T06:59:08;94959.84;;;5.58;100.00
38225;BME280;24025;48.138;11.428;2023-12-14T07:01:40;94957.81;;;5.51;100.00
38225;BME280;24025;48.138;11.428;2023-12-14T07:04:12;94968.91;;;5.41;100.00
38225;BME280;24025;48.138;11.428;2023-12-14T07:06:51;94976.41;;;5.39;100.00
38225;BME280;24025;48.138;11.428;2023-12-14T07:09:23;94982.19;;;5.45;100.00
38225;BME280;24025;48.138;11.428;2023-12-14T07:11:55;94979.72;;;5.52;100.00
38225;BME280;24025;48.138;11.428;2023-12-14T07:14:26;94993.00;;;5.55;100.00
38225;BME280;24025;48.138;11.428;2023-12-14T07:16:58;94994.63;;;5.60;100.00
38225;BME280;24025;48.138;11.428;2023-12-14T07:19:29;94987.91;;;5.62;100.00
38225;BME280;24025;48.138;11.428;2023-12-14T07:22:01;94997.97;;;5.41;100.00
38225;BME280;24025;48.138;11.428;2023-12-14T07:24:32;95009.16;;;5.50;100.00
38225;BME280;24025;48.138;11.428;2023-12-14T07:27:19;95005.63;;;5.46;100.00
38225;BME280;24025;48.138;11.428;2023-12-14T07:29:50;95012.28;;;5.56;100.00
38225;BME280;24025;48.138;11.428;2023-12-14T07:32:22;95012.28;;;5.56;100.00
38225;BME280;24025;48.138;11.428;2023-12-14T07:34:54;95017.91;;;5.70;100.00
38225;BME280;24025;48.138;11.428;2023-12-14T07:37:26;95022.78;;;5.52;100.00
38225;BME280;24025;48.138;11.428;2023-12-14T07:39:58;95030.13;;;5.59;100.00
38225;BME280;24025;48.138;11.428;2023-12-14T07:42:29;95020.63;;;5.74;100.00
38225;BME280;24025;48.138;11.428;2023-12-14T07:45:01;95027.56;;;5.78;100.00
38225;BME280;24025;48.138;11.428;2023-12-14T07:47:32;95026.50;;;5.83;100.00
38225;BME280;24025;48.138;11.428;2023-12-14T07:50:04;95033.69;;;5.82;100.00
38225;BME280;24025;48.138;11.428;2023-12-14T07:52:36;95035.66;;;5.85;100.00
38225;BME280;24025;48.138;11.428;2023-12-14T07:55:08;95042.22;;;5.91;100.00
38225;BME280;24025;48.138;11.428;2023-12-14T07:57:40;95048.19;;;5.88;100.00
38225;BME280;24025;48.138;11.428;2023-12-14T08:00:12;95047.06;;;5.89;100.00
38225;BME280;24025;48.138;11.428;2023-12-14T08:02:44;95055.72;;;5.86;100.00
38225;BME280;24025;48.138;11.428;2023-12-14T08:05:15;95059.75;;;5.96;100.00
38225;BME280;24025;48.138;11.428;2023-12-14T08:07:47;95065.44;;;5.82;100.00
38225;BME280;24025;48.138;11.428;2023-12-14T08:10:19;95069.47;;;5.76;100.00
38225;BME280;24025;48.138;11.428;2023-12-14T08:12:51;95071.25;;;5.72;100.00
38225;BME280;24025;48.138;11.428;2023-12-14T08:15:23;95073.63;;;5.77;100.00
38225;BME280;24025;48.138;11.428;2023-12-14T08:17:55;95082.34;;;5.78;100.00
38225;BME280;24025;48.138;11.428;2023-12-14T08:20:27;95085.00;;;5.78;100.00
38225;BME280;24025;48.138;11.428;2023-12-14T08:22:58;95090.34;;;5.81;100.00
38225;BME280;24025;48.138;11.428;2023-12-14T08:25:30;95095.47;;;5.74;100.00
38225;BME280;24025;48.138;11.428;2023-12-14T08:28:02;95098.38;;;5.85;100.00
38225;BME280;24025;48.138;11.428;2023-12-14T08:30:36;95105.06;;;5.94;100.00
38225;BME280;24025;48.138;11.428;2023-12-14T08:33:09;95112.31;;;5.97;100.00
38225;BME280;24025;48.138;11.428;2023-12-14T08:35:41;95119.72;;;6.08;100.00
38225;BME280;24025;48.138;11.428;2023-12-14T08:38:12;95118.31;;;5.94;100.00
38225;BME280;24025;48.138;11.428;2023-12-14T08:40:44;95124.91;;;5.73;100.00
38225;BME280;24025;48.138;11.428;2023-12-14T08:43:16;95124.09;;;5.84;100.00
38225;BME280;24025;48.138;11.428;2023-12-14T08:45:47;95126.03;;;5.87;100.00
38225;BME280;24025;48.138;11.428;2023-12-14T08:48:20;95134.41;;;5.89;100.00
38225;BME280;24025;48.138;11.428;2023-12-14T08:50:53;95136.72;;;5.91;100.00
38225;BME280;24025;48.138;11.428;2023-12-14T08:53:26;95144.03;;;5.82;100.00
38225;BME280;24025;48.138;11.428;2023-12-14T08:55:58;95139.69;;;5.89;100.00
38225;BME280;24025;48.138;11.428;2023-12-14T08:58:29;95156.59;;;5.85;100.00
38225;BME280;24025;48.138;11.428;2023-12-14T09:01:01;95152.06;;;5.85;100.00
38225;BME280;24025;48.138;11.428;2023-12-14T09:03:33;95153.31;;;6.04;100.00
38225;BME280;24025;48.138;11.428;2023-12-14T09:06:05;95162.25;;;5.99;100.00
38225;BME280;24025;48.138;11.428;2023-12-14T09:08:37;95156.38;;;6.06;100.00
38225;BME280;24025;48.138;11.428;2023-12-14T09:11:08;95172.59;;;6.04;100.00
38225;BME280;24025;48.138;11.428;2023-12-14T09:13:40;95183.78;;;6.13;100.00
38225;BME280;24025;48.138;11.428;2023-12-14T09:16:12;95182.66;;;5.99;100.00
38225;BME280;24025;48.138;11.428;2023-12-14T09:18:43;95190.22;;;5.84;100.00
38225;BME280;24025;48.138;11.428;2023-12-14T09:21:15;95187.91;;;5.83;100.00
38225;BME280;24025;48.138;11.428;2023-12-14T09:23:47;95199.94;;;5.80;100.00
38225;BME280;24025;48.138;11.428;2023-12-14T09:26:18;95195.03;;;5.94;100.00
38225;BME280;24025;48.138;11.428;2023-12-14T09:28:50;95198.53;;;5.99;100.00
38225;BME280;24025;48.138;11.428;2023-12-14T09:31:22;95203.63;;;5.91;100.00
38225;BME280;24025;48.138;11.428;2023-12-14T09:33:53;95202.34;;;5.85;100.00
38225;BME280;24025;48.138;11.428;2023-12-14T09:36:25;95201.19;;;5.99;100.00
38225;BME280;24025;48.138;11.428;2023-12-14T09:38:57;95203.84;;;6.14;100.00
38225;BME280;24025;48.138;11.428;2023-12-14T09:41:28;95209.81;;;6.11;100.00
38225;BME280;24025;48.138;11.428;2023-12-14T09:44:02;95207.53;;;6.10;100.00
38225;BME280;24025;48.138;11.428;2023-12-14T09:46:36;95211.69;;;6.27;100.00
38225;BME280;24025;48.138;11.428;2023-12-14T09:49:09;95216.81;;;6.35;100.00
38225;BME280;24025;48.138;11.428;2023-12-14T09:51:41;95218.69;;;6.35;100.00
38225;BME280;24025;48.138;11.428;2023-12-14T09:54:13;95214.75;;;6.44;100.00
38225;BME280;24025;48.138;11.428;2023-12-14T09:56:48;95225.03;;;6.46;100.00
38225;BME280;24025;48.138;11.428;2023-12-14T09:59:20;95221.97;;;6.28;99.59
38225;BME280;24025;48.138;11.428;2023-12-14T10:01:52;95225.38;;;6.29;100.00
38225;BME280;24025;48.138;11.428;2023-12-14T10:04:24;95229.47;;;6.26;100.00
38225;BME280;24025;48.138;11.428;2023-12-14T10:06:55;95222.91;;;6.20;100.00
38225;BME280;24025;48.138;11.428;2023-12-14T10:09:27;95234.84;;;6.14;100.00
38225;BME280;24025;48.138;11.428;2023-12-14T10:12:09;95236.72;;;6.13;100.00
38225;BME280;24025;48.138;11.428;2023-12-14T10:14:41;95244.91;;;6.24;100.00
38225;BME280;24025;48.138;11.428;2023-12-14T10:17:20;95237.31;;;6.22;100.00
38225;BME280;24025;48.138;11.428;2023-12-14T10:19:52;95237.25;;;6.19;100.00
38225;BME280;24025;48.138;11.428;2023-12-14T10:22:26;95238.06;;;6.07;100.00
38225;BME280;24025;48.138;11.428;2023-12-14T10:25:00;95243.13;;;6.12;100.00
38225;BME280;24025;48.138;11.428;2023-12-14T10:27:32;95238.16;;;6.27;100.00
38225;BME280;24025;48.138;11.428;2023-12-14T10:30:06;95242.19;;;6.20;100.00
38225;BME280;24025;48.138;11.428;2023-12-14T10:32:41;95243.53;;;6.14;100.00
38225;BME280;24025;48.138;11.428;2023-12-14T10:35:14;95237.50;;;6.30;100.00
38225;BME280;24025;48.138;11.428;2023-12-14T10:37:50;95244.06;;;6.20;100.00
38225;BME280;24025;48.138;11.428;2023-12-14T10:40:23;95242.44;;;6.31;100.00
38225;BME280;24025;48.138;11.428;2023-12-14T10:42:58;95248.09;;;6.30;100.00
38225;BME280;24025;48.138;11.428;2023-12-14T10:45:33;95245.78;;;6.28;100.00
38225;BME280;24025;48.138;11.428;2023-12-14T10:48:06;95258.69;;;6.30;100.00
38225;BME280;24025;48.138;11.428;2023-12-14T10:50:38;95260.13;;;6.27;100.00
38225;BME280;24025;48.138;11.428;2023-12-14T10:53:10;95257.03;;;6.25;100.00
38225;BME280;24025;48.138;11.428;2023-12-14T10:55:44;95262.19;;;6.34;100.00
38225;BME280;24025;48.138;11.428;2023-12-14T10:58:16;95267.41;;;6.46;100.00
38225;BME280;24025;48.138;11.428;2023-12-14T11:01:00;95275.84;;;6.20;100.00
38225;BME280;24025;48.138;11.428;2023-12-14T11:03:35;95270.69;;;6.27;99.60
38225;BME280;24025;48.138;11.428;2023-12-14T11:09:07;95279.44;;;6.28;97.28
38225;BME280;24025;48.138;11.428;2023-12-14T11:11:55;95277.84;;;6.55;96.95
38225;BME280;24025;48.138;11.428;2023-12-14T11:14:28;95276.03;;;6.59;96.78
38225;BME280;24025;48.138;11.428;2023-12-14T11:17:06;95284.22;;;6.53;95.92
38225;BME280;24025;48.138;11.428;2023-12-14T11:19:38;95287.91;;;6.80;95.46
38225;BME280;24025;48.138;11.428;2023-12-14T11:22:11;95291.75;;;6.67;94.28
38225;BME280;24025;48.138;11.428;2023-12-14T11:24:55;95294.03;;;7.00;92.95
38225;BME280;24025;48.138;11.428;2023-12-14T11:27:28;95303.19;;;7.03;89.92
38225;BME280;24025;48.138;11.428;2023-12-14T11:30:02;95297.50;;;7.20;90.14
38225;BME280;24025;48.138;11.428;2023-12-14T11:32:34;95301.25;;;7.54;89.41
38225;BME280;24025;48.138;11.428;2023-12-14T11:35:06;95304.50;;;7.83;87.77
38225;BME280;24025;48.138;11.428;2023-12-14T11:37:39;95313.75;;;8.12;87.05
38225;BME280;24025;48.138;11.428;2023-12-14T11:40:11;95310.34;;;8.11;85.46
38225;BME280;24025;48.138;11.428;2023-12-14T11:42:44;95303.94;;;7.74;86.03
38225;BME280;24025;48.138;11.428;2023-12-14T11:45:17;95307.66;;;7.69;86.65
38225;BME280;24025;48.138;11.428;2023-12-14T11:47:49;95317.41;;;8.04;86.00
38225;BME280;24025;48.138;11.428;2023-12-14T11:50:21;95313.91;;;7.61;84.60
38225;BME280;24025;48.138;11.428;2023-12-14T11:52:53;95310.81;;;7.39;86.60
38225;BME280;24025;48.138;11.428;2023-12-14T11:55:24;95321.88;;;7.80;87.10
38225;BME280;24025;48.138;11.428;2023-12-14T11:57:57;95312.59;;;7.90;85.20
38225;BME280;24025;48.138;11.428;2023-12-14T12:00:30;95324.53;;;7.61;83.84
38225;BME280;24025;48.138;11.428;2023-12-14T12:03:18;95323.38;;;7.43;85.06
38225;BME280;24025;48.138;11.428;2023-12-14T12:05:51;95326.94;;;7.50;83.79
38225;BME280;24025;48.138;11.428;2023-12-14T12:08:24;95335.56;;;7.63;85.15
38225;BME280;24025;48.138;11.428;2023-12-14T12:10:56;95339.03;;;7.48;85.23
38225;BME280;24025;48.138;11.428;2023-12-14T12:13:29;95336.75;;;7.30;85.00
38225;BME280;24025;48.138;11.428;2023-12-14T12:16:00;95349.41;;;7.21;86.66
38225;BME280;24025;48.138;11.428;2023-12-14T12:18:32;95345.28;;;7.39;87.10
38225;BME280;24025;48.138;11.428;2023-12-14T12:21:04;95336.84;;;7.34;86.36
38225;BME280;24025;48.138;11.428;2023-12-14T12:23:37;95344.91;;;7.06;88.12
38225;BME280;24025;48.138;11.428;2023-12-14T12:26:09;95342.34;;;7.09;88.17
38225;BME280;24025;48.138;11.428;2023-12-14T12:28:41;95341.00;;;7.00;88.76
38225;BME280;24025;48.138;11.428;2023-12-14T12:31:13;95346.94;;;6.97;90.02
38225;BME280;24025;48.138;11.428;2023-12-14T12:33:44;95351.59;;;7.00;89.85
38225;BME280;24025;48.138;11.428;2023-12-14T12:36:16;95342.06;;;7.15;89.79
38225;BME280;24025;48.138;11.428;2023-12-14T12:38:48;95356.44;;;7.14;89.82
38225;BME280;24025;48.138;11.428;2023-12-14T12:41:19;95360.38;;;7.20;89.88
38225;BME280;24025;48.138;11.428;2023-12-14T12:43:51;95357.31;;;7.18;89.24
38225;BME280;24025;48.138;11.428;2023-12-14T12:46:23;95357.06;;;7.07;90.41
38225;BME280;24025;48.138;11.428;2023-12-14T12:48:54;95361.25;;;7.08;91.11
38225;BME280;24025;48.138;11.428;2023-12-14T12:51:26;95371.50;;;6.94;90.44
38225;BME280;24025;48.138;11.428;2023-12-14T12:53:59;95368.69;;;6.87;89.74
38225;BME280;24025;48.138;11.428;2023-12-14T12:56:43;95377.22;;;6.80;89.66
38225;BME280;24025;48.138;11.428;2023-12-14T12:59:15;95384.91;;;6.69;88.05
38225;BME280;24025;48.138;11.428;2023-12-14T13:01:46;95379.59;;;6.69;87.88
38225;BME280;24025;48.138;11.428;2023-12-14T13:04:19;95388.25;;;6.66;89.07
38225;BME280;24025;48.138;11.428;2023-12-14T13:06:51;95385.59;;;6.66;88.57
38225;BME280;24025;48.138;11.428;2023-12-14T13:09:23;95390.28;;;6.57;88.82
38225;BME280;24025;48.138;11.428;2023-12-14T13:11:55;95402.13;;;6.47;89.19
38225;BME280;24025;48.138;11.428;2023-12-14T13:14:29;95403.06;;;6.39;90.63
38225;BME280;24025;48.138;11.428;2023-12-14T13:17:00;95403.19;;;6.59;90.68
38225;BME280;24025;48.138;11.428;2023-12-14T13:19:32;95413.84;;;6.62;89.97
38225;BME280;24025;48.138;11.428;2023-12-14T13:22:04;95411.91;;;6.59;89.98